sensor_id;sensor_type;location;lat;lon;timestamp;pressure;altitude;pressure_sealevel;temperature;humidity
59274;BME280;45044;41.572;24.730;2022-07-29T00:00:58;91596.34;;;16.81;100.00
59274;BME280;45044;41.572;24.730;2022-07-29T00:03:24;91601.59;;;16.84;100.00
59274;BME280;45044;41.572;24.730;2022-07-29T00:05:51;91604.59;;;16.86;100.00
59274;BME280;45044;41.572;24.730;2022-07-29T00:08:19;91606.31;;;16.73;100.00
59274;BME280;45044;41.572;24.730;2022-07-29T00:10:46;91598.81;;;16.68;100.00
59274;BME280;45044;41.572;24.730;2022-07-29T00:13:13;91595.47;;;16.63;100.00
59274;BME280;45044;41.572;24.730;2022-07-29T00:15:40;91595.81;;;16.66;100.00
59274;BME280;45044;41.572;24.730;2022-07-29T00:18:06;91583.66;;;16.68;100.00
59274;BME280;45044;41.572;24.730;2022-07-29T00:20:33;91591.16;;;16.73;100.00
59274;BME280;45044;41.572;24.730;2022-07-29T00:23:00;91598.00;;;16.71;100.00
59274;BME280;45044;41.572;24.730;2022-07-29T00:25:27;91597.66;;;16.69;100.00
59274;BME280;45044;41.572;24.730;2022-07-29T00:27:53;91589.03;;;16.64;100.00
59274;BME280;45044;41.572;24.730;2022-07-29T00:30:20;91591.31;;;16.62;100.00
59274;BME280;45044;41.572;24.730;2022-07-29T00:32:47;91581.91;;;16.34;100.00
59274;BME280;45044;41.572;24.730;2022-07-29T00:35:13;91597.13;;;16.30;100.00
59274;BME280;45044;41.572;24.730;2022-07-29T00:37:59;91592.59;;;16.30;100.00
59274;BME280;45044;41.572;24.730;2022-07-29T00:40:27;91595.00;;;16.21;100.00
59274;BME280;45044;41.572;24.730;2022-07-29T00:42:54;91591.72;;;16.37;100.00
59274;BME280;45044;41.572;24.730;2022-07-29T00:45:21;91587.19;;;16.37;100.00
59274;BME280;45044;41.572;24.730;2022-07-29T00:47:48;91589.41;;;16.39;100.00
59274;BME280;45044;41.572;24.730;2022-07-29T00:50:19;91595.13;;;16.37;100.00
59274;BME280;45044;41.572;24.730;2022-07-29T00:52:48;91597.94;;;16.26;100.00
59274;BME280;45044;41.572;24.730;2022-07-29T00:55:16;91599.53;;;16.20;100.00
59274;BME280;45044;41.572;24.730;2022-07-29T00:57:44;91603.09;;;16.10;100.00
59274;BME280;45044;41.572;24.730;2022-07-29T01:00:18;91594.34;;;16.13;100.00
59274;BME280;45044;41.572;24.730;2022-07-29T01:02:46;91589.94;;;16.02;100.00
59274;BME280;45044;41.572;24.730;2022-07-29T01:05:18;91588.50;;;15.94;100.00
59274;BME280;45044;41.572;24.730;2022-07-29T01:07:49;91601.38;;;15.96;100.00
59274;BME280;45044;41.572;24.730;2022-07-29T01:10:18;91598.47;;;15.86;100.00
59274;BME280;45044;41.572;24.730;2022-07-29T01:12:48;91591.69;;;15.81;100.00
59274;BME280;45044;41.572;24.730;2022-07-29T01:15:15;91590.88;;;15.88;100.00
59274;BME280;45044;41.572;24.730;2022-07-29T01:18:03;91593.16;;;15.86;100.00
59274;BME280;45044;41.572;24.730;2022-07-29T01:20:59;91593.63;;;15.81;100.00
59274;BME280;45044;41.572;24.730;2022-07-29T01:32:01;91591.84;;;15.71;100.00
59274;BME280;45044;41.572;24.730;2022-07-29T01:34:53;91596.44;;;15.35;100.00
59274;BME280;45044;41.572;24.730;2022-07-29T01:37:26;91595.19;;;15.43;100.00
59274;BME280;45044;41.572;24.730;2022-07-29T01:39:56;91589.06;;;15.50;100.00
59274;BME280;45044;41.572;24.730;2022-07-29T01:42:36;91593.34;;;15.72;100.00
59274;BME280;45044;41.572;24.730;2022-07-29T01:45:18;91593.16;;;15.86;100.00
59274;BME280;45044;41.572;24.730;2022-07-29T01:48:27;91592.47;;;15.82;100.00
59274;BME280;45044;41.572;24.730;2022-07-29T01:51:09;91587.19;;;15.78;100.00
59274;BME280;45044;41.572;24.730;2022-07-29T01:53:54;91586.19;;;15.68;100.00
59274;BME280;45044;41.572;24.730;2022-07-29T01:56:23;91579.66;;;15.77;100.00
59274;BME280;45044;41.572;24.730;2022-07-29T01:58:52;91573.66;;;15.73;100.00
59274;BME280;45044;41.572;24.730;2022-07-29T02:01:23;91576.28;;;15.73;100.00
59274;BME280;45044;41.572;24.730;2022-07-29T02:03:55;91587.69;;;15.69;100.00
59274;BME280;45044;41.572;24.730;2022-07-29T02:06:28;91590.84;;;15.61;100.00
59274;BME280;45044;41.572;24.730;2022-07-29T02:08:59;91588.75;;;15.44;100.00
59274;BME280;45044;41.572;24.730;2022-07-29T02:11:27;91579.75;;;15.38;100.00
59274;BME280;45044;41.572;24.730;2022-07-29T02:13:56;91585.72;;;15.46;100.00
59274;BME280;45044;41.572;24.730;2022-07-29T02:16:26;91583.88;;;15.43;100.00
59274;BME280;45044;41.572;24.730;2022-07-29T02:18:56;91581.69;;;15.34;100.00
59274;BME280;45044;41.572;24.730;2022-07-29T02:21:26;91589.28;;;15.32;100.00
59274;BME280;45044;41.572;24.730;2022-07-29T02:23:55;91586.28;;;15.30;100.00
59274;BME280;45044;41.572;24.730;2022-07-29T02:26:25;91590.94;;;15.18;100.00
59274;BME280;45044;41.572;24.730;2022-07-29T02:28:55;91588.56;;;15.28;100.00
59274;BME280;45044;41.572;24.730;2022-07-29T02:31:25;91589.66;;;15.30;100.00
59274;BME280;45044;41.572;24.730;2022-07-29T02:33:53;91580.25;;;15.26;100.00
59274;BME280;45044;41.572;24.730;2022-07-29T02:36:22;91590.91;;;15.22;100.00
59274;BME280;45044;41.572;24.730;2022-07-29T02:38:50;91586.94;;;15.03;100.00
59274;BME280;45044;41.572;24.730;2022-07-29T02:41:24;91578.28;;;14.99;100.00
59274;BME280;45044;41.572;24.730;2022-07-29T02:44:04;91582.75;;;15.05;100.00
59274;BME280;45044;41.572;24.730;2022-07-29T02:46:34;91586.50;;;15.08;100.00
59274;BME280;45044;41.572;24.730;2022-07-29T02:52:08;91578.22;;;15.06;100.00
59274;BME280;45044;41.572;24.730;2022-07-29T02:54:44;91581.25;;;15.04;100.00
59274;BME280;45044;41.572;24.730;2022-07-29T02:57:23;91582.41;;;15.00;100.00
59274;BME280;45044;41.572;24.730;2022-07-29T02:59:57;91549.31;;;14.80;100.00
59274;BME280;45044;41.572;24.730;2022-07-29T03:02:26;91583.50;;;15.06;100.00
59274;BME280;45044;41.572;24.730;2022-07-29T03:04:57;91580.22;;;14.94;100.00
59274;BME280;45044;41.572;24.730;2022-07-29T03:07:26;91581.84;;;14.81;100.00
59274;BME280;45044;41.572;24.730;2022-07-29T03:09:54;91581.53;;;14.71;100.00
59274;BME280;45044;41.572;24.730;2022-07-29T03:12:22;91566.81;;;14.67;100.00
59274;BME280;45044;41.572;24.730;2022-07-29T03:14:49;91578.44;;;14.80;100.00
59274;BME280;45044;41.572;24.730;2022-07-29T03:17:16;91597.69;;;14.88;100.00
59274;BME280;45044;41.572;24.730;2022-07-29T03:19:43;91600.31;;;14.88;100.00
59274;BME280;45044;41.572;24.730;2022-07-29T03:22:10;91588.25;;;14.83;100.00
59274;BME280;45044;41.572;24.730;2022-07-29T03:24:37;91588.25;;;14.80;100.00
59274;BME280;45044;41.572;24.730;2022-07-29T03:27:04;91602.56;;;14.90;100.00
59274;BME280;45044;41.572;24.730;2022-07-29T03:29:32;91598.44;;;14.85;100.00
59274;BME280;45044;41.572;24.730;2022-07-29T03:32:02;91599.97;;;14.86;100.00
59274;BME280;45044;41.572;24.730;2022-07-29T03:34:31;91602.53;;;14.93;100.00
59274;BME280;45044;41.572;24.730;2022-07-29T03:36:58;91602.66;;;14.79;100.00
59274;BME280;45044;41.572;24.730;2022-07-29T03:39:28;91602.66;;;14.79;100.00
59274;BME280;45044;41.572;24.730;2022-07-29T03:41:56;91609.03;;;14.85;100.00
59274;BME280;45044;41.572;24.730;2022-07-29T03:44:27;91615.41;;;14.91;100.00
59274;BME280;45044;41.572;24.730;2022-07-29T03:46:55;91609.00;;;14.89;100.00
59274;BME280;45044;41.572;24.730;2022-07-29T03:49:25;91616.88;;;14.96;100.00
59274;BME280;45044;41.572;24.730;2022-07-29T03:51:53;91613.81;;;14.97;100.00
59274;BME280;45044;41.572;24.730;2022-07-29T03:54:20;91603.34;;;14.90;100.00
59274;BME280;45044;41.572;24.730;2022-07-29T03:56:48;91610.84;;;14.95;100.00
59274;BME280;45044;41.572;24.730;2022-07-29T03:59:19;91609.72;;;14.93;100.00
59274;BME280;45044;41.572;24.730;2022-07-29T04:01:47;91607.06;;;14.93;100.00
59274;BME280;45044;41.572;24.730;2022-07-29T04:04:15;91613.41;;;15.03;100.00
59274;BME280;45044;41.572;24.730;2022-07-29T04:06:45;91599.16;;;14.89;100.00
59274;BME280;45044;41.572;24.730;2022-07-29T04:09:13;91607.31;;;15.06;100.00
59274;BME280;45044;41.572;24.730;2022-07-29T04:11:41;91617.53;;;15.07;100.00
59274;BME280;45044;41.572;24.730;2022-07-29T04:14:29;91622.78;;;15.11;100.00
59274;BME280;45044;41.572;24.730;2022-07-29T04:16:56;91617.06;;;15.16;100.00
59274;BME280;45044;41.572;24.730;2022-07-29T04:19:27;91615.56;;;15.15;100.00
59274;BME280;45044;41.572;24.730;2022-07-29T04:21:54;91617.34;;;15.26;100.00
59274;BME280;45044;41.572;24.730;2022-07-29T04:24:21;91606.03;;;15.21;100.00
59274;BME280;45044;41.572;24.730;2022-07-29T04:26:48;91623.63;;;15.39;100.00
59274;BME280;45044;41.572;24.730;2022-07-29T04:29:15;91614.84;;;15.46;100.00
59274;BME280;45044;41.572;24.730;2022-07-29T04:31:43;91618.50;;;15.56;100.00
59274;BME280;45044;41.572;24.730;2022-07-29T04:34:10;91617.72;;;15.59;100.00
59274;BME280;45044;41.572;24.730;2022-07-29T04:36:37;91625.50;;;15.74;100.00
59274;BME280;45044;41.572;24.730;2022-07-29T04:39:04;91621.97;;;15.84;100.00
59274;BME280;45044;41.572;24.730;2022-07-29T04:41:31;91622.63;;;15.92;100.00
59274;BME280;45044;41.572;24.730;2022-07-29T04:44:00;91620.34;;;15.90;100.00
59274;BME280;45044;41.572;24.730;2022-07-29T04:46:34;91626.31;;;16.02;100.00
59274;BME280;45044;41.572;24.730;2022-07-29T04:49:02;91618.38;;;15.98;100.00
59274;BME280;45044;41.572;24.730;2022-07-29T04:51:29;91627.38;;;16.08;100.00
59274;BME280;45044;41.572;24.730;2022-07-29T04:53:58;91633.59;;;16.22;100.00
59274;BME280;45044;41.572;24.730;2022-07-29T04:56:25;91623.97;;;16.35;100.00
59274;BME280;45044;41.572;24.730;2022-07-29T04:58:54;91634.06;;;18.35;100.00
59274;BME280;45044;41.572;24.730;2022-07-29T05:01:21;91622.88;;;20.35;100.00
59274;BME280;45044;41.572;24.730;2022-07-29T05:03:50;91624.06;;;21.89;100.00
59274;BME280;45044;41.572;24.730;2022-07-29T05:06:22;91624.94;;;23.19;91.31
59274;BME280;45044;41.572;24.730;2022-07-29T05:08:49;91621.53;;;24.18;81.41
59274;BME280;45044;41.572;24.730;2022-07-29T05:11:15;91628.16;;;25.09;73.74
59274;BME280;45044;41.572;24.730;2022-07-29T05:13:47;91633.91;;;26.12;67.62
59274;BME280;45044;41.572;24.730;2022-07-29T05:16:14;91626.22;;;26.91;63.25
59274;BME280;45044;41.572;24.730;2022-07-29T05:18:41;91636.38;;;27.65;58.37
59274;BME280;45044;41.572;24.730;2022-07-29T05:21:09;91629.50;;;28.17;56.23
59274;BME280;45044;41.572;24.730;2022-07-29T05:23:36;91626.88;;;28.55;53.98
59274;BME280;45044;41.572;24.730;2022-07-29T05:26:02;91629.75;;;28.90;53.53
59274;BME280;45044;41.572;24.730;2022-07-29T05:28:33;91639.66;;;29.54;49.74
59274;BME280;45044;41.572;24.730;2022-07-29T05:31:00;91633.91;;;30.30;47.68
59274;BME280;45044;41.572;24.730;2022-07-29T05:33:27;91625.75;;;30.59;46.14
59274;BME280;45044;41.572;24.730;2022-07-29T05:36:04;91634.59;;;30.77;45.15
59274;BME280;45044;41.572;24.730;2022-07-29T05:38:35;91629.66;;;30.98;44.22
59274;BME280;45044;41.572;24.730;2022-07-29T05:41:02;91632.09;;;31.02;44.36
59274;BME280;45044;41.572;24.730;2022-07-29T05:43:29;91632.88;;;30.79;44.94
59274;BME280;45044;41.572;24.730;2022-07-29T05:45:57;91626.13;;;31.20;43.13
59274;BME280;45044;41.572;24.730;2022-07-29T05:48:24;91626.34;;;31.23;42.33
59274;BME280;45044;41.572;24.730;2022-07-29T05:50:51;91632.25;;;31.27;42.42
59274;BME280;45044;41.572;24.730;2022-07-29T05:53:18;91622.13;;;31.39;41.51
59274;BME280;45044;41.572;24.730;2022-07-29T05:55:47;91626.03;;;32.28;40.16
59274;BME280;45044;41.572;24.730;2022-07-29T05:58:14;91618.47;;;33.27;37.89
59274;BME280;45044;41.572;24.730;2022-07-29T06:00:41;91622.63;;;33.91;36.36
59274;BME280;45044;41.572;24.730;2022-07-29T06:03:08;91628.78;;;34.31;35.27
59274;BME280;45044;41.572;24.730;2022-07-29T06:05:35;91625.38;;;34.71;35.21
59274;BME280;45044;41.572;24.730;2022-07-29T06:08:04;91622.34;;;35.69;31.92
59274;BME280;45044;41.572;24.730;2022-07-29T06:10:36;91623.16;;;36.13;30.44
59274;BME280;45044;41.572;24.730;2022-07-29T06:13:03;91630.06;;;36.49;29.37
59274;BME280;45044;41.572;24.730;2022-07-29T06:15:30;91619.00;;;36.33;29.54
59274;BME280;45044;41.572;24.730;2022-07-29T06:17:56;91622.69;;;36.86;29.33
59274;BME280;45044;41.572;24.730;2022-07-29T06:20:27;91623.44;;;35.12;31.76
59274;BME280;45044;41.572;24.730;2022-07-29T06:22:56;91625.09;;;34.09;32.98
59274;BME280;45044;41.572;24.730;2022-07-29T06:25:26;91623.75;;;32.38;34.29
59274;BME280;45044;41.572;24.730;2022-07-29T06:27:56;91612.00;;;34.07;32.08
59274;BME280;45044;41.572;24.730;2022-07-29T06:30:23;91614.97;;;34.56;29.90
59274;BME280;45044;41.572;24.730;2022-07-29T06:32:53;91616.38;;;33.97;32.33
59274;BME280;45044;41.572;24.730;2022-07-29T06:35:20;91616.91;;;34.88;31.33
59274;BME280;45044;41.572;24.730;2022-07-29T06:38:07;91611.34;;;34.34;33.14
59274;BME280;45044;41.572;24.730;2022-07-29T06:40:54;91612.34;;;34.17;33.40
59274;BME280;45044;41.572;24.730;2022-07-29T06:45:55;91611.66;;;35.17;32.16
59274;BME280;45044;41.572;24.730;2022-07-29T06:48:22;91600.53;;;34.74;29.80
59274;BME280;45044;41.572;24.730;2022-07-29T06:50:49;91600.53;;;33.95;30.16
59274;BME280;45044;41.572;24.730;2022-07-29T06:53:16;91594.59;;;34.10;31.18
59274;BME280;45044;41.572;24.730;2022-07-29T06:55:42;91590.97;;;33.50;31.17
59274;BME280;45044;41.572;24.730;2022-07-29T06:58:12;91593.03;;;32.74;31.69
59274;BME280;45044;41.572;24.730;2022-07-29T07:00:40;91584.22;;;32.68;30.90
59274;BME280;45044;41.572;24.730;2022-07-29T07:03:07;91580.06;;;32.61;30.85
59274;BME280;45044;41.572;24.730;2022-07-29T07:05:34;91593.78;;;33.44;30.69
59274;BME280;45044;41.572;24.730;2022-07-29T07:08:02;91587.28;;;33.47;28.53
59274;BME280;45044;41.572;24.730;2022-07-29T07:10:29;91592.78;;;34.32;28.02
59274;BME280;45044;41.572;24.730;2022-07-29T07:12:56;91587.88;;;33.40;27.90
59274;BME280;45044;41.572;24.730;2022-07-29T07:15:23;91593.34;;;33.78;27.82
59274;BME280;45044;41.572;24.730;2022-07-29T07:18:05;91585.22;;;33.53;29.13
59274;BME280;45044;41.572;24.730;2022-07-29T07:20:34;91576.09;;;33.89;29.01
59274;BME280;45044;41.572;24.730;2022-07-29T07:23:03;91589.66;;;34.09;28.70
59274;BME280;45044;41.572;24.730;2022-07-29T07:25:32;91588.03;;;35.06;27.33
59274;BME280;45044;41.572;24.730;2022-07-29T07:27:59;91589.94;;;33.72;29.75
59274;BME280;45044;41.572;24.730;2022-07-29T07:30:28;91591.91;;;32.89;28.41
59274;BME280;45044;41.572;24.730;2022-07-29T07:32:55;91591.69;;;33.31;29.32
59274;BME280;45044;41.572;24.730;2022-07-29T07:35:22;91588.69;;;34.25;27.61
59274;BME280;45044;41.572;24.730;2022-07-29T07:37:49;91592.56;;;34.76;28.36
59274;BME280;45044;41.572;24.730;2022-07-29T07:40:15;91587.19;;;33.14;30.81
59274;BME280;45044;41.572;24.730;2022-07-29T07:42:44;91592.44;;;32.31;30.02
59274;BME280;45044;41.572;24.730;2022-07-29T07:45:11;91589.00;;;33.06;28.87
59274;BME280;45044;41.572;24.730;2022-07-29T07:47:42;91594.94;;;33.29;30.73
59274;BME280;45044;41.572;24.730;2022-07-29T07:50:11;91599.81;;;33.75;29.28
59274;BME280;45044;41.572;24.730;2022-07-29T07:52:53;91580.59;;;32.54;30.86
59274;BME280;45044;41.572;24.730;2022-07-29T07:55:21;91583.44;;;32.42;29.15
59274;BME280;45044;41.572;24.730;2022-07-29T07:57:48;91579.78;;;32.65;30.90
59274;BME280;45044;41.572;24.730;2022-07-29T08:00:15;91594.16;;;32.59;29.68
59274;BME280;45044;41.572;24.730;2022-07-29T08:02:42;91590.59;;;33.40;29.84
59274;BME280;45044;41.572;24.730;2022-07-29T08:05:12;91586.09;;;33.81;27.91
59274;BME280;45044;41.572;24.730;2022-07-29T08:07:46;91597.88;;;32.31;30.08
59274;BME280;45044;41.572;24.730;2022-07-29T08:10:14;91594.03;;;31.78;31.26
59274;BME280;45044;41.572;24.730;2022-07-29T08:13:07;91591.53;;;32.17;30.60
59274;BME280;45044;41.572;24.730;2022-07-29T08:15:35;91585.53;;;30.86;31.36
59274;BME280;45044;41.572;24.730;2022-07-29T08:18:02;91600.09;;;30.83;31.58
59274;BME280;45044;41.572;24.730;2022-07-29T08:20:34;91589.56;;;30.33;32.95
59274;BME280;45044;41.572;24.730;2022-07-29T08:23:03;91588.59;;;29.18;33.23
59274;BME280;45044;41.572;24.730;2022-07-29T08:25:30;91597.00;;;29.26;35.23
59274;BME280;45044;41.572;24.730;2022-07-29T08:27:59;91588.09;;;29.14;36.72
59274;BME280;45044;41.572;24.730;2022-07-29T08:30:27;91580.00;;;28.70;36.94
59274;BME280;45044;41.572;24.730;2022-07-29T08:32:56;91587.47;;;28.43;36.72
59274;BME280;45044;41.572;24.730;2022-07-29T08:35:24;91587.28;;;28.52;37.44
59274;BME280;45044;41.572;24.730;2022-07-29T08:38:00;91593.59;;;28.38;36.73
59274;BME280;45044;41.572;24.730;2022-07-29T08:40:27;91585.13;;;28.24;37.35
59274;BME280;45044;41.572;24.730;2022-07-29T08:43:07;91594.06;;;28.36;35.32
59274;BME280;45044;41.572;24.730;2022-07-29T08:45:52;91588.56;;;28.63;36.20
59274;BME280;45044;41.572;24.730;2022-07-29T08:48:22;91589.81;;;28.62;35.81
59274;BME280;45044;41.572;24.730;2022-07-29T08:50:54;91587.56;;;28.22;36.06
59274;BME280;45044;41.572;24.730;2022-07-29T08:53:24;91585.03;;;28.45;36.93
59274;BME280;45044;41.572;24.730;2022-07-29T08:55:53;91584.91;;;28.66;37.11
59274;BME280;45044;41.572;24.730;2022-07-29T08:58:22;91580.69;;;28.59;35.70
59274;BME280;45044;41.572;24.730;2022-07-29T09:00:55;91585.13;;;28.24;34.64
59274;BME280;45044;41.572;24.730;2022-07-29T09:03:24;91583.63;;;27.91;35.67
59274;BME280;45044;41.572;24.730;2022-07-29T09:05:51;91564.66;;;28.12;35.46
59274;BME280;45044;41.572;24.730;2022-07-29T09:08:21;91570.28;;;28.14;35.85
59274;BME280;45044;41.572;24.730;2022-07-29T09:10:52;91574.84;;;28.72;34.68
59274;BME280;45044;41.572;24.730;2022-07-29T09:13:19;91576.34;;;27.97;37.08
59274;BME280;45044;41.572;24.730;2022-07-29T09:15:46;91564.72;;;28.23;35.12
59274;BME280;45044;41.572;24.730;2022-07-29T09:20:59;91564.72;;;28.23;37.94
59274;BME280;45044;41.572;24.730;2022-07-29T09:26:38;91570.97;;;28.79;35.22
59274;BME280;45044;41.572;24.730;2022-07-29T09:29:09;91575.34;;;28.70;36.64
59274;BME280;45044;41.572;24.730;2022-07-29T09:31:38;91565.59;;;28.90;36.82
59274;BME280;45044;41.572;24.730;2022-07-29T09:34:09;91573.06;;;28.57;36.97
59274;BME280;45044;41.572;24.730;2022-07-29T09:36:54;91570.50;;;28.80;37.81
59274;BME280;45044;41.572;24.730;2022-07-29T09:42:00;91566.81;;;28.84;34.56
59274;BME280;45044;41.572;24.730;2022-07-29T09:47:08;91572.47;;;28.42;35.16
59274;BME280;45044;41.572;24.730;2022-07-29T09:49:36;91564.13;;;28.89;36.13
59274;BME280;45044;41.572;24.730;2022-07-29T09:52:16;91559.41;;;28.78;35.09
59274;BME280;45044;41.572;24.730;2022-07-29T09:54:43;91562.91;;;28.96;34.76
59274;BME280;45044;41.572;24.730;2022-07-29T09:57:26;91531.28;;;29.14;36.13
59274;BME280;45044;41.572;24.730;2022-07-29T10:00:01;91544.56;;;29.12;37.13
59274;BME280;45044;41.572;24.730;2022-07-29T10:02:34;91553.72;;;29.32;34.43
59274;BME280;45044;41.572;24.730;2022-07-29T10:05:09;91556.13;;;29.18;34.92
59274;BME280;45044;41.572;24.730;2022-07-29T10:10:25;91551.97;;;29.28;35.69
59274;BME280;45044;41.572;24.730;2022-07-29T10:12:58;91550.72;;;29.18;34.89
59274;BME280;45044;41.572;24.730;2022-07-29T10:15:34;91541.19;;;29.46;32.60
59274;BME280;45044;41.572;24.730;2022-07-29T10:18:10;91543.88;;;29.34;35.50
59274;BME280;45044;41.572;24.730;2022-07-29T10:20:38;91549.56;;;29.53;34.18
59274;BME280;45044;41.572;24.730;2022-07-29T10:23:05;91550.84;;;29.64;32.88
59274;BME280;45044;41.572;24.730;2022-07-29T10:25:32;91548.91;;;29.87;35.99
59274;BME280;45044;41.572;24.730;2022-07-29T10:28:01;91555.31;;;29.79;34.84
59274;BME280;45044;41.572;24.730;2022-07-29T10:30:32;91551.19;;;29.11;33.84
59274;BME280;45044;41.572;24.730;2022-07-29T10:38:45;91543.84;;;29.28;36.38
59274;BME280;45044;41.572;24.730;2022-07-29T10:44:23;91534.53;;;29.47;35.12
59274;BME280;45044;41.572;24.730;2022-07-29T10:46:52;91545.34;;;29.41;35.50
59274;BME280;45044;41.572;24.730;2022-07-29T10:49:21;91537.06;;;29.79;35.98
59274;BME280;45044;41.572;24.730;2022-07-29T10:52:05;91534.13;;;29.77;35.44
59274;BME280;45044;41.572;24.730;2022-07-29T10:54:42;91532.41;;;29.85;35.59
59274;BME280;45044;41.572;24.730;2022-07-29T10:57:29;91521.06;;;29.75;32.08
59274;BME280;45044;41.572;24.730;2022-07-29T11:00:26;91525.75;;;30.04;35.85
59274;BME280;45044;41.572;24.730;2022-07-29T11:02:56;91514.66;;;29.96;34.01
59274;BME280;45044;41.572;24.730;2022-07-29T11:06:11;91518.59;;;29.83;35.72
59274;BME280;45044;41.572;24.730;2022-07-29T11:08:39;91511.47;;;29.74;36.02
59274;BME280;45044;41.572;24.730;2022-07-29T11:13:55;91515.88;;;30.23;33.30
59274;BME280;45044;41.572;24.730;2022-07-29T11:16:22;91515.16;;;29.94;35.16
59274;BME280;45044;41.572;24.730;2022-07-29T11:21:42;91504.31;;;30.23;35.28
59274;BME280;45044;41.572;24.730;2022-07-29T11:24:26;91510.69;;;30.14;34.01
59274;BME280;45044;41.572;24.730;2022-07-29T11:27:30;91503.56;;;30.11;34.89
59274;BME280;45044;41.572;24.730;2022-07-29T11:29:58;91500.59;;;30.20;34.29
59274;BME280;45044;41.572;24.730;2022-07-29T11:32:44;91497.66;;;30.30;33.33
59274;BME280;45044;41.572;24.730;2022-07-29T11:35:17;91495.63;;;30.47;35.04
59274;BME280;45044;41.572;24.730;2022-07-29T11:41:22;91489.28;;;30.16;35.72
59274;BME280;45044;41.572;24.730;2022-07-29T11:43:56;91495.69;;;30.13;34.26
59274;BME280;45044;41.572;24.730;2022-07-29T11:47:00;91464.13;;;30.10;34.27
59274;BME280;45044;41.572;24.730;2022-07-29T11:49:27;91486.81;;;30.07;37.00
59274;BME280;45044;41.572;24.730;2022-07-29T11:51:59;91489.81;;;29.86;36.56
59274;BME280;45044;41.572;24.730;2022-07-29T11:54:36;91481.94;;;29.76;36.07
59274;BME280;45044;41.572;24.730;2022-07-29T11:57:24;91486.34;;;29.68;38.88
59274;BME280;45044;41.572;24.730;2022-07-29T12:00:05;91484.13;;;29.55;36.54
59274;BME280;45044;41.572;24.730;2022-07-29T12:02:41;91478.22;;;29.85;35.70
59274;BME280;45044;41.572;24.730;2022-07-29T12:05:14;91485.63;;;29.73;36.26
59274;BME280;45044;41.572;24.730;2022-07-29T12:10:41;91480.69;;;29.77;34.42
59274;BME280;45044;41.572;24.730;2022-07-29T12:13:09;91482.41;;;29.92;35.99
59274;BME280;45044;41.572;24.730;2022-07-29T12:15:38;91482.88;;;29.56;37.11
59274;BME280;45044;41.572;24.730;2022-07-29T12:18:17;91481.16;;;29.64;35.66
59274;BME280;45044;41.572;24.730;2022-07-29T12:20:57;91489.06;;;29.62;37.09
59274;BME280;45044;41.572;24.730;2022-07-29T12:23:32;91475.50;;;29.80;38.58
59274;BME280;45044;41.572;24.730;2022-07-29T12:26:03;91477.47;;;29.96;36.54
59274;BME280;45044;41.572;24.730;2022-07-29T12:28:39;91470.31;;;29.47;36.41
59274;BME280;45044;41.572;24.730;2022-07-29T12:31:13;91474.31;;;29.81;39.64
59274;BME280;45044;41.572;24.730;2022-07-29T12:34:00;91468.59;;;29.96;39.39
59274;BME280;45044;41.572;24.730;2022-07-29T12:36:32;91456.31;;;29.95;37.08
59274;BME280;45044;41.572;24.730;2022-07-29T12:39:03;91464.19;;;29.58;37.18
59274;BME280;45044;41.572;24.730;2022-07-29T12:41:32;91464.69;;;29.85;36.57
59274;BME280;45044;41.572;24.730;2022-07-29T12:43:59;91455.78;;;30.08;34.80
59274;BME280;45044;41.572;24.730;2022-07-29T12:46:26;91457.72;;;30.36;39.49
59274;BME280;45044;41.572;24.730;2022-07-29T12:48:54;91461.16;;;30.36;36.60
59274;BME280;45044;41.572;24.730;2022-07-29T12:51:32;91461.91;;;30.20;37.63
59274;BME280;45044;41.572;24.730;2022-07-29T12:54:05;91451.84;;;30.09;37.80
59274;BME280;45044;41.572;24.730;2022-07-29T12:56:32;91448.63;;;30.28;34.44
59274;BME280;45044;41.572;24.730;2022-07-29T12:59:18;91449.88;;;30.15;37.96
59274;BME280;45044;41.572;24.730;2022-07-29T13:01:46;91449.13;;;30.20;35.28
59274;BME280;45044;41.572;24.730;2022-07-29T13:04:32;91456.53;;;30.03;38.49
59274;BME280;45044;41.572;24.730;2022-07-29T13:07:01;91448.63;;;30.05;37.11
59274;BME280;45044;41.572;24.730;2022-07-29T13:10:15;91445.22;;;29.75;37.89
59274;BME280;45044;41.572;24.730;2022-07-29T13:13:09;91452.38;;;29.67;36.81
59274;BME280;45044;41.572;24.730;2022-07-29T13:15:40;91451.84;;;29.57;40.54
59274;BME280;45044;41.572;24.730;2022-07-29T13:20:55;91448.44;;;29.68;41.58
59274;BME280;45044;41.572;24.730;2022-07-29T13:23:22;91424.56;;;29.67;40.88
59274;BME280;45044;41.572;24.730;2022-07-29T13:25:50;91445.47;;;30.00;38.11
59274;BME280;45044;41.572;24.730;2022-07-29T13:28:17;91451.16;;;29.62;39.23
59274;BME280;45044;41.572;24.730;2022-07-29T13:30:44;91445.47;;;29.89;38.55
59274;BME280;45044;41.572;24.730;2022-07-29T13:33:11;91444.72;;;30.06;40.11
59274;BME280;45044;41.572;24.730;2022-07-29T13:35:39;91437.81;;;30.05;38.00
59274;BME280;45044;41.572;24.730;2022-07-29T13:38:06;91432.19;;;29.74;41.63
59274;BME280;45044;41.572;24.730;2022-07-29T13:40:35;91445.72;;;29.74;39.29
59274;BME280;45044;41.572;24.730;2022-07-29T13:43:03;91441.56;;;29.73;40.43
59274;BME280;45044;41.572;24.730;2022-07-29T13:45:30;91429.97;;;29.49;39.11
59274;BME280;45044;41.572;24.730;2022-07-29T13:47:56;91436.38;;;29.40;41.24
59274;BME280;45044;41.572;24.730;2022-07-29T13:50:23;91444.47;;;29.46;39.72
59274;BME280;45044;41.572;24.730;2022-07-29T13:52:52;91440.03;;;29.43;41.23
59274;BME280;45044;41.572;24.730;2022-07-29T13:55:19;91430.69;;;29.10;41.05
59274;BME280;45044;41.572;24.730;2022-07-29T13:57:46;91431.66;;;29.07;42.89